Time;durP1;ratioP1;P1;durP2;ratioP2;P2;SDS_P1;SDS_P2;PMS_P1;PMS_P2;Temp;Humidity;BMP_temperature;BMP_pressure;BME280_temperature;BME280_humidity;BME280_pressure;Samples;Min_cycle;Max_cycle;Signal;HPM_P1;HPM_P2
2023/08/16 00:00:03;;;;;;;6.55;3.30;;;;;;;20.67;69.22;101656.16;3612247;39;20412;-62
2023/08/16 00:02:28;;;;;;;8.43;3.30;;;;;;;20.67;69.53;101656.16;3614618;39;20116;-62
2023/08/16 00:04:54;;;;;;;4.57;2.90;;;;;;;20.61;69.59;101646.63;3614862;39;20062;-62
2023/08/16 00:07:20;;;;;;;4.22;3.10;;;;;;;20.66;69.42;101659.91;3615381;39;20350;-62
2023/08/16 00:09:45;;;;;;;6.32;3.22;;;;;;;20.59;69.85;101649.53;3615206;39;20055;-61
2023/08/16 00:12:11;;;;;;;5.13;3.08;;;;;;;20.62;69.57;101665.63;3611987;39;20063;-62
2023/08/16 00:14:36;;;;;;;5.20;3.00;;;;;;;20.65;70.02;101659.03;3611912;39;20099;-61
2023/08/16 00:17:02;;;;;;;4.80;3.17;;;;;;;20.65;70.45;101653.56;3613933;39;20047;-61
2023/08/16 00:19:28;;;;;;;6.13;3.30;;;;;;;20.70;70.46;101664.06;3614376;39;20351;-62
2023/08/16 00:21:54;;;;;;;4.93;2.67;;;;;;;20.70;69.77;101664.94;3613404;39;20043;-61
2023/08/16 00:24:19;;;;;;;4.35;3.20;;;;;;;20.68;70.07;101664.22;3615349;39;20067;-62
2023/08/16 00:26:45;;;;;;;5.15;3.08;;;;;;;20.66;70.33;101666.22;3613162;39;20057;-62
2023/08/16 00:29:10;;;;;;;4.97;2.97;;;;;;;20.65;70.50;101659.03;3611383;39;20051;-62
2023/08/16 00:31:36;;;;;;;3.95;2.85;;;;;;;20.63;70.17;101661.03;3614703;39;20061;-62
2023/08/16 00:34:02;;;;;;;6.30;3.13;;;;;;;20.62;71.03;101665.63;3603003;39;20047;-61
2023/08/16 00:36:27;;;;;;;6.82;2.95;;;;;;;20.62;71.72;101654.72;3614992;39;20087;-62
2023/08/16 00:38:53;;;;;;;4.40;3.10;;;;;;;20.59;71.74;101657.72;3614884;39;20288;-62
2023/08/16 00:41:19;;;;;;;7.32;3.08;;;;;;;20.56;71.21;101660.72;3615335;39;20064;-62
2023/08/16 00:43:44;;;;;;;6.88;3.40;;;;;;;20.54;71.14;101667.34;3611044;39;20384;-62
2023/08/16 00:46:13;;;;;;;4.03;3.35;;;;;;;20.50;71.09;101671.31;3616609;39;20397;-61
2023/08/16 00:48:43;;;;;;;3.95;2.97;;;;;;;20.45;71.44;101677.19;3614505;39;20046;-62
2023/08/16 00:51:11;;;;;;;4.90;3.22;;;;;;;20.42;71.42;101674.72;3601306;39;20051;-62
2023/08/16 00:53:40;;;;;;;5.07;3.10;;;;;;;20.36;71.46;101669.81;3613757;39;20053;-61
2023/08/16 00:56:06;;;;;;;3.90;3.15;;;;;;;20.34;72.25;101683.63;3613428;39;20055;-62
2023/08/16 00:58:32;;;;;;;5.70;3.30;;;;;;;20.30;72.76;101676.72;3611285;39;20087;-62
2023/08/16 01:00:58;;;;;;;3.92;3.25;;;;;;;20.28;72.22;101680.59;3615281;39;20059;-62
2023/08/16 01:03:24;;;;;;;4.10;3.20;;;;;;;20.27;73.28;101678.88;3613174;39;20355;-61
2023/08/16 01:05:50;;;;;;;4.22;3.33;;;;;;;20.26;73.29;101675.25;3614763;39;20056;-62
2023/08/16 01:08:16;;;;;;;3.95;3.47;;;;;;;20.22;73.57;101681.13;3616214;39;20065;-62
2023/08/16 01:11:28;;;;;;;4.18;3.25;;;;;;;20.18;73.03;101684.13;3616510;39;20054;-62
2023/08/16 01:14:36;;;;;;;7.30;3.60;;;;;;;20.18;73.20;101686.84;3614281;39;20309;-62
2023/08/16 01:17:05;;;;;;;4.57;3.67;;;;;;;20.15;73.03;101678.94;3614308;39;20440;-61
2023/08/16 01:19:33;;;;;;;6.70;4.07;;;;;;;20.20;72.21;101688.56;3614321;39;20444;-62
2023/08/16 01:22:26;;;;;;;4.65;4.07;;;;;;;20.17;73.30;101687.88;3611657;39;20066;-62
2023/08/16 01:26:03;;;;;;;5.07;4.30;;;;;;;20.15;73.56;101698.06;3616622;39;20385;-62
2023/08/16 01:28:32;;;;;;;5.15;3.88;;;;;;;20.20;73.20;101704.97;3604084;39;20043;-62
2023/08/16 01:31:04;;;;;;;7.70;4.43;;;;;;;20.18;73.22;101705.97;3613528;39;20114;-62
2023/08/16 01:33:30;;;;;;;5.38;4.50;;;;;;;20.18;74.32;101699.66;3616132;39;20063;-61
2023/08/16 01:35:55;;;;;;;7.07;4.55;;;;;;;20.01;74.11;101681.16;3615846;39;20061;-62
2023/08/16 01:38:21;;;;;;;6.32;4.25;;;;;;;20.14;74.61;101709.13;3613490;39;20069;-61
2023/08/16 01:41:07;;;;;;;7.75;4.78;;;;;;;20.12;74.35;101709.25;3618433;39;20362;-62
2023/08/16 01:43:34;;;;;;;8.13;4.75;;;;;;;19.95;75.06;101688.03;3612096;39;20051;-62
2023/08/16 01:46:03;;;;;;;5.22;4.72;;;;;;;20.07;74.52;101703.31;3614956;39;20180;-62
2023/08/16 01:48:32;;;;;;;8.20;5.22;;;;;;;20.06;75.22;101706.19;3616589;39;20059;-61
2023/08/16 01:50:58;;;;;;;7.18;4.60;;;;;;;19.99;74.30;101689.50;3615980;39;20046;-62
2023/08/16 01:53:24;;;;;;;7.43;4.90;;;;;;;20.03;74.71;101696.41;3614685;39;20131;-61
2023/08/16 01:55:50;;;;;;;7.05;5.30;;;;;;;19.98;74.32;101704.16;3613892;39;20086;-62
2023/08/16 01:58:16;;;;;;;8.20;5.07;;;;;;;19.97;75.48;101707.84;3608453;39;20062;-62
2023/08/16 02:00:42;;;;;;;7.18;4.80;;;;;;;;;;3621478;39;20583;-62
2023/08/16 02:03:07;;;;;;;8.20;5.20;;;;;;;19.95;75.25;101704.41;3615020;39;20083;-62
2023/08/16 02:05:35;;;;;;;7.50;4.53;;;;;;;19.94;74.91;101708.13;3618378;39;20057;-62
2023/08/16 02:08:01;;;;;;;5.90;5.30;;;;;;;19.90;74.10;101706.66;3613339;39;20050;-61
2023/08/16 02:10:27;;;;;;;6.15;4.57;;;;;;;19.90;74.99;101712.13;3615532;39;20082;-62
2023/08/16 02:12:53;;;;;;;7.75;5.03;;;;;;;19.85;74.05;101715.28;3616946;39;20054;-61
2023/08/16 02:15:18;;;;;;;8.02;5.03;;;;;;;19.80;74.48;101708.47;3617173;39;20059;-61
2023/08/16 02:17:44;;;;;;;6.88;5.28;;;;;;;19.74;76.03;101709.00;3617044;39;20053;-61
2023/08/16 02:20:12;;;;;;;7.65;5.05;;;;;;;19.73;76.15;101718.16;3614717;39;20046;-62
2023/08/16 02:22:39;;;;;;;9.77;5.38;;;;;;;19.72;75.40;101711.84;3613825;39;20084;-61
2023/08/16 02:25:05;;;;;;;8.60;4.75;;;;;;;19.73;75.93;101713.59;3614708;39;20050;-61
2023/08/16 02:27:34;;;;;;;6.15;5.13;;;;;;;19.71;75.65;101708.25;3617373;39;20109;-62
2023/08/16 02:29:59;;;;;;;9.27;5.20;;;;;;;19.77;75.60;101716.94;3614865;39;20053;-61
2023/08/16 02:32:25;;;;;;;10.07;5.00;;;;;;;19.78;75.12;101710.47;3614266;39;20354;-61
2023/08/16 02:34:51;;;;;;;5.32;4.82;;;;;;;19.76;74.84;101710.63;3616270;39;20051;-62
2023/08/16 02:37:18;;;;;;;8.20;6.00;;;;;;;19.66;74.87;101705.09;3602531;39;20066;-62
2023/08/16 02:39:44;;;;;;;14.90;5.45;;;;;;;19.69;75.28;101712.13;3615174;39;20218;-62
2023/08/16 02:42:09;;;;;;;6.65;5.30;;;;;;;19.65;74.12;101708.78;3615614;39;20054;-62
2023/08/16 02:44:35;;;;;;;6.88;5.75;;;;;;;19.59;74.48;101697.50;3615931;39;20061;-61
2023/08/16 02:47:00;;;;;;;9.52;6.05;;;;;;;19.59;74.65;101692.91;3614949;39;20081;-62
2023/08/16 02:49:26;;;;;;;8.45;5.68;;;;;;;19.58;74.66;101693.94;3613803;39;20062;-62
2023/08/16 02:51:52;;;;;;;7.53;5.90;;;;;;;19.56;74.04;101695.06;3617864;39;20055;-61
2023/08/16 02:54:17;;;;;;;7.10;5.40;;;;;;;19.49;75.23;101695.56;3612740;39;20059;-62
2023/08/16 02:56:43;;;;;;;9.18;6.18;;;;;;;19.52;74.87;101707.22;3616654;39;20059;-62
2023/08/16 02:59:14;;;;;;;6.97;5.65;;;;;;;19.51;75.11;101705.50;3614754;39;20341;-62
2023/08/16 03:01:40;;;;;;;8.82;5.95;;;;;;;19.51;74.60;101703.63;3614527;39;20058;-62
2023/08/16 03:04:06;;;;;;;10.25;6.32;;;;;;;19.50;75.04;101707.34;3612660;39;20139;-62
2023/08/16 03:06:31;;;;;;;7.28;6.10;;;;;;;19.45;74.20;101704.16;3614732;39;20067;-62
2023/08/16 03:08:57;;;;;;;7.55;5.63;;;;;;;19.39;74.79;101697.38;3613673;39;20413;-62
2023/08/16 03:11:23;;;;;;;10.85;6.07;;;;;;;19.47;74.95;101704.88;3615795;39;20094;-61
2023/08/16 03:13:48;;;;;;;9.52;6.32;;;;;;;19.44;74.26;101714.22;3613972;39;20069;-62
2023/08/16 03:16:14;;;;;;;8.63;5.90;;;;;;;19.43;74.92;101717.06;3615769;39;20058;-62
2023/08/16 03:18:39;;;;;;;11.63;5.68;;;;;;;19.36;74.46;101711.25;3615636;39;20050;-62
2023/08/16 03:21:05;;;;;;;6.22;5.60;;;;;;;19.41;74.39;101724.50;3615204;39;20046;-62
2023/08/16 03:23:31;;;;;;;6.75;6.03;;;;;;;19.40;75.08;101720.91;3616551;39;20066;-62
2023/08/16 03:25:56;;;;;;;8.77;6.00;;;;;;;19.41;75.60;101716.31;3615850;39;20099;-61
2023/08/16 03:28:22;;;;;;;8.75;5.78;;;;;;;19.38;74.87;101705.69;3613904;39;20065;-62
2023/08/16 03:30:48;;;;;;;8.32;6.38;;;;;;;19.35;74.89;101701.34;3613393;39;20067;-62
2023/08/16 03:33:13;;;;;;;8.40;6.32;;;;;;;19.29;74.97;101695.56;3613564;39;20055;-62
2023/08/16 03:35:39;;;;;;;7.43;6.70;;;;;;;19.27;75.91;101708.44;3613606;39;20063;-62
2023/08/16 03:38:04;;;;;;;9.40;6.93;;;;;;;19.01;75.52;101676.09;3614678;39;20070;-63
2023/08/16 03:40:30;;;;;;;15.70;12.27;;;;;;;19.21;75.79;101732.50;3616984;39;20050;-62
2023/08/16 03:42:56;;;;;;;8.40;7.22;;;;;;;19.07;76.18;101707.41;3612029;39;20054;-62
2023/08/16 03:45:24;;;;;;;9.00;7.40;;;;;;;19.16;76.50;101720.28;3616345;39;20115;-61
2023/08/16 03:47:52;;;;;;;9.45;6.85;;;;;;;19.05;76.58;101712.97;3614873;39;20082;-63
2023/08/16 03:50:17;;;;;;;10.82;7.15;;;;;;;19.13;77.29;101720.53;3612084;39;20453;-62
2023/08/16 03:52:43;;;;;;;8.70;6.53;;;;;;;19.09;77.25;101725.34;3613815;39;20139;-62
2023/08/16 03:55:09;;;;;;;9.40;6.97;;;;;;;19.09;77.44;101738.97;3611500;39;20705;-62
2023/08/16 03:57:34;;;;;;;9.18;6.78;;;;;;;19.08;77.52;101737.25;3616645;39;20058;-62
2023/08/16 04:00:00;;;;;;;8.82;6.88;;;;;;;19.06;77.65;101730.19;3612645;39;20054;-61
2023/08/16 04:02:26;;;;;;;9.13;6.85;;;;;;;19.04;77.03;101735.78;3615381;39;20102;-62
2023/08/16 04:04:53;;;;;;;8.65;6.95;;;;;;;19.01;77.45;101731.44;3611346;39;20105;-62
2023/08/16 04:07:19;;;;;;;8.55;7.00;;;;;;;18.97;77.31;101729.13;3614025;39;20074;-61
2023/08/16 04:09:45;;;;;;;10.10;7.63;;;;;;;18.94;77.96;101729.38;3613357;39;20325;-62
2023/08/16 04:12:10;;;;;;;7.68;6.80;;;;;;;18.91;77.60;101735.06;3606605;39;20381;-62
2023/08/16 04:14:36;;;;;;;8.07;7.28;;;;;;;18.87;78.77;101742.63;3612982;39;20059;-62
2023/08/16 04:17:01;;;;;;;7.93;6.80;;;;;;;18.86;78.65;101738.16;3613210;39;20301;-62
2023/08/16 04:19:27;;;;;;;9.25;7.30;;;;;;;18.68;78.40;101721.47;3613370;39;20058;-62
2023/08/16 04:21:52;;;;;;;10.13;6.82;;;;;;;18.86;78.59;101740.88;3614046;39;20051;-64
2023/08/16 04:24:18;;;;;;;9.25;7.13;;;;;;;18.89;78.00;101743.34;3614819;39;20067;-63
2023/08/16 04:26:44;;;;;;;9.60;6.90;;;;;;;18.87;77.41;101739.03;3613160;39;20166;-63
2023/08/16 04:29:10;;;;;;;8.13;7.32;;;;;;;18.84;77.97;101748.34;3601536;39;20064;-62
2023/08/16 04:31:36;;;;;;;10.45;7.22;;;;;;;18.82;77.83;101752.16;3611103;39;20081;-63
2023/08/16 04:34:01;;;;;;;7.88;7.07;;;;;;;18.81;78.33;101754.03;3611912;39;20062;-63
2023/08/16 04:36:27;;;;;;;8.73;6.90;;;;;;;18.83;78.04;101751.16;3613525;39;20067;-63
2023/08/16 04:38:53;;;;;;;8.77;7.13;;;;;;;18.84;77.15;101729.25;3615343;39;20058;-63
2023/08/16 04:41:18;;;;;;;9.80;7.07;;;;;;;18.85;77.83;101738.31;3613437;39;20069;-63
2023/08/16 04:43:44;;;;;;;8.50;6.95;;;;;;;18.85;78.32;101735.56;3612685;39;20427;-63
2023/08/16 04:46:09;;;;;;;9.75;7.05;;;;;;;18.85;77.53;101730.13;3615224;39;20050;-64
2023/08/16 04:48:35;;;;;;;9.38;6.90;;;;;;;18.77;77.78;101723.47;3618825;39;20301;-63
2023/08/16 04:51:01;;;;;;;7.93;6.65;;;;;;;18.84;78.09;101739.28;3617000;39;20098;-64
2023/08/16 04:53:27;;;;;;;7.95;6.85;;;;;;;18.58;78.26;101701.38;3612806;39;20409;-64
2023/08/16 04:55:52;;;;;;;8.27;6.82;;;;;;;18.82;77.77;101742.13;3617117;39;20111;-64
2023/08/16 04:58:18;;;;;;;7.60;6.80;;;;;;;18.82;77.38;101735.81;3616276;39;20051;-64
2023/08/16 05:00:44;;;;;;;7.75;6.45;;;;;;;18.85;77.97;101746.47;3613151;39;20062;-64
2023/08/16 05:03:09;;;;;;;8.10;6.40;;;;;;;18.79;78.24;101748.69;3611720;39;20087;-64
2023/08/16 05:05:35;;;;;;;8.57;6.55;;;;;;;18.85;78.01;101757.38;3618939;39;20051;-64
2023/08/16 05:08:00;;;;;;;8.02;7.07;;;;;;;18.84;78.47;101750.16;3615626;39;20296;-64
2023/08/16 05:10:26;;;;;;;9.75;6.90;;;;;;;18.81;78.56;101739.53;3612701;39;20058;-64
2023/08/16 05:12:52;;;;;;;8.80;6.90;;;;;;;18.78;78.63;101752.41;3615285;39;20229;-63
2023/08/16 05:15:17;;;;;;;8.95;6.72;;;;;;;18.70;78.81;101743.97;3615770;39;20071;-63
2023/08/16 05:17:43;;;;;;;7.82;6.90;;;;;;;18.74;79.32;101761.84;3614040;39;20080;-64
2023/08/16 05:20:10;;;;;;;8.48;6.85;;;;;;;18.73;77.85;101754.66;3615421;39;20058;-64
2023/08/16 05:22:35;;;;;;;8.10;6.90;;;;;;;18.64;78.71;101744.47;3612126;39;20058;-64
2023/08/16 05:25:01;;;;;;;11.73;7.03;;;;;;;18.72;78.98;101772.00;3614956;39;20046;-64
2023/08/16 05:27:28;;;;;;;6.70;6.10;;;;;;;18.71;78.45;101770.22;3613783;39;20062;-64
2023/08/16 05:29:54;;;;;;;9.02;6.90;;;;;;;18.68;78.81;101765.03;3614974;39;20469;-63
2023/08/16 05:32:20;;;;;;;9.27;7.22;;;;;;;18.75;79.99;101773.59;3614439;39;20135;-64
2023/08/16 05:34:45;;;;;;;7.28;6.57;;;;;;;18.78;79.50;101770.63;3610727;39;20304;-64
2023/08/16 05:37:11;;;;;;;10.23;6.70;;;;;;;18.79;78.83;101767.75;3610842;39;20054;-63
2023/08/16 05:39:37;;;;;;;6.85;6.15;;;;;;;18.78;78.68;101763.31;3611843;39;20421;-64
2023/08/16 05:42:03;;;;;;;9.18;6.93;;;;;;;18.82;77.78;101765.78;3613756;39;20059;-63
2023/08/16 05:44:29;;;;;;;8.52;6.65;;;;;;;18.83;78.51;101773.81;3614265;39;20055;-64
2023/08/16 05:46:55;;;;;;;7.75;6.35;;;;;;;18.86;77.75;101767.25;3618073;39;20046;-63
2023/08/16 05:49:21;;;;;;;8.23;6.22;;;;;;;18.87;77.03;101788.06;3611943;39;20049;-64
2023/08/16 05:51:46;;;;;;;7.72;5.85;;;;;;;18.87;77.99;101794.41;3617440;39;20057;-64
2023/08/16 05:54:12;;;;;;;9.75;6.13;;;;;;;18.90;78.14;101795.97;3612770;39;20094;-64
2023/08/16 05:56:37;;;;;;;7.40;6.07;;;;;;;18.96;78.15;101792.75;3615474;39;20325;-63
2023/08/16 05:59:03;;;;;;;9.68;6.55;;;;;;;19.00;77.70;101794.25;3610416;39;20055;-64
2023/08/16 06:01:29;;;;;;;9.02;5.97;;;;;;;18.84;77.27;101775.56;3607267;39;20322;-64
2023/08/16 06:03:55;;;;;;;8.13;6.22;;;;;;;19.01;76.78;101801.44;3617495;39;20066;-64
2023/08/16 06:06:20;;;;;;;7.35;6.00;;;;;;;19.01;77.23;101802.28;3616553;39;20465;-64
2023/08/16 06:08:46;;;;;;;7.75;5.85;;;;;;;19.05;76.96;101792.00;3611169;39;20066;-64
2023/08/16 06:11:11;;;;;;;9.07;5.68;;;;;;;19.02;76.24;101781.34;3610978;39;20077;-64
2023/08/16 06:13:37;;;;;;;6.15;5.10;;;;;;;19.11;76.58;101785.19;3615961;39;20054;-64
2023/08/16 06:16:03;;;;;;;6.65;5.13;;;;;;;19.16;76.73;101786.56;3614261;39;20327;-63
2023/08/16 06:18:29;;;;;;;8.35;5.57;;;;;;;19.20;76.32;101789.88;3612339;39;20047;-64
2023/08/16 06:20:55;;;;;;;7.32;5.40;;;;;;;19.25;76.32;101796.69;3613606;39;20086;-64
2023/08/16 06:23:20;;;;;;;7.03;5.55;;;;;;;19.31;76.04;101788.97;3611669;39;20401;-63
2023/08/16 06:25:46;;;;;;;6.03;5.00;;;;;;;19.38;75.58;101787.50;3604896;39;20054;-64
2023/08/16 06:28:12;;;;;;;6.72;4.97;;;;;;;19.36;74.62;101782.16;3615572;39;20067;-63
2023/08/16 06:30:38;;;;;;;10.18;5.35;;;;;;;19.45;74.95;101788.69;3613836;39;20151;-64
2023/08/16 06:33:04;;;;;;;7.28;5.10;;;;;;;19.45;75.02;101783.25;3615727;39;20197;-64
2023/08/16 06:35:29;;;;;;;5.70;5.03;;;;;;;19.50;74.00;101786.44;3614842;39;20053;-64
2023/08/16 06:37:57;;;;;;;7.07;5.22;;;;;;;19.56;75.32;101780.47;3612477;39;20066;-63
2023/08/16 06:40:23;;;;;;;5.63;4.50;;;;;;;19.73;74.83;101789.09;3615133;39;20110;-64
2023/08/16 06:42:48;;;;;;;5.15;4.57;;;;;;;19.81;73.11;101792.91;3615709;39;20061;-63
2023/08/16 06:45:14;;;;;;;5.63;4.65;;;;;;;19.90;73.49;101799.44;3612878;39;20065;-64
2023/08/16 06:47:42;;;;;;;6.72;4.75;;;;;;;19.97;72.23;101795.19;3614157;39;20133;-64
2023/08/16 06:50:08;;;;;;;6.50;4.50;;;;;;;19.99;71.99;101787.75;3615158;39;20038;-64
2023/08/16 06:52:34;;;;;;;7.65;4.53;;;;;;;20.08;70.60;101788.81;3613979;39;20408;-64
2023/08/16 06:55:00;;;;;;;7.03;4.25;;;;;;;20.14;70.71;101791.88;3613187;39;20047;-64
2023/08/16 06:57:26;;;;;;;5.85;4.55;;;;;;;20.34;70.42;101798.31;3612543;39;20055;-64
2023/08/16 06:59:51;;;;;;;6.72;4.32;;;;;;;20.51;70.31;101802.31;3611972;39;20191;-64
2023/08/16 07:02:17;;;;;;;6.65;4.32;;;;;;;20.72;68.09;101817.81;3613562;39;20059;-64
2023/08/16 07:04:43;;;;;;;6.57;4.10;;;;;;;20.79;68.28;101819.00;3611281;39;20091;-63
2023/08/16 07:07:10;;;;;;;4.45;4.05;;;;;;;20.61;66.88;101772.31;3614102;39;20059;-63
2023/08/16 07:09:36;;;;;;;7.22;3.55;;;;;;;20.84;66.80;101811.25;3617402;39;20073;-64
2023/08/16 07:12:02;;;;;;;5.15;4.00;;;;;;;20.85;66.54;101805.66;3614704;39;20440;-64
2023/08/16 07:14:27;;;;;;;7.22;3.78;;;;;;;20.94;67.08;101797.63;3614541;39;20058;-63
2023/08/16 07:16:53;;;;;;;6.05;3.25;;;;;;;21.06;66.57;101794.66;3614191;39;20042;-64
2023/08/16 07:19:20;;;;;;;3.78;3.00;;;;;;;21.22;66.50;101799.59;3613712;39;20266;-64
2023/08/16 07:21:46;;;;;;;5.68;3.08;;;;;;;21.39;65.74;101806.25;3615149;39;20419;-64
2023/08/16 07:24:11;;;;;;;5.35;2.83;;;;;;;21.37;63.87;101808.25;3615869;39;20047;-64
2023/08/16 07:26:38;;;;;;;4.70;2.80;;;;;;;21.46;63.56;101815.63;3614173;39;20054;-64
2023/08/16 07:29:03;;;;;;;3.70;2.70;;;;;;;21.54;64.00;101815.78;3603748;39;20406;-64
2023/08/16 07:31:29;;;;;;;7.25;2.85;;;;;;;21.71;62.27;101827.88;3613763;39;20054;-64
2023/08/16 07:33:54;;;;;;;3.78;2.60;;;;;;;21.79;62.45;101818.97;3616936;39;20051;-64
2023/08/16 07:36:20;;;;;;;7.88;2.88;;;;;;;21.88;62.83;101812.63;3612343;39;20098;-63
2023/08/16 07:38:47;;;;;;;6.05;2.53;;;;;;;22.07;61.93;101821.84;3617326;39;20055;-64
2023/08/16 07:41:13;;;;;;;5.45;2.70;;;;;;;22.21;61.02;101822.28;3614645;39;20043;-64
2023/08/16 07:43:39;;;;;;;3.75;2.40;;;;;;;22.34;60.30;101821.97;3612443;39;20090;-64
2023/08/16 07:46:05;;;;;;;2.90;2.30;;;;;;;22.43;60.43;101826.56;3615548;39;20062;-63
2023/08/16 07:48:30;;;;;;;6.22;2.63;;;;;;;22.58;61.82;101817.88;3615463;39;20146;-66
2023/08/16 07:50:56;;;;;;;5.10;2.58;;;;;;;22.71;58.85;101826.66;3615202;39;20369;-66
2023/08/16 07:53:24;;;;;;;4.32;2.40;;;;;;;22.80;58.45;101825.72;3611211;39;20082;-65
2023/08/16 07:55:50;;;;;;;3.95;2.40;;;;;;;22.89;58.42;101815.72;3614101;39;20111;-66
2023/08/16 07:58:16;;;;;;;4.10;2.33;;;;;;;23.01;56.91;101831.00;3619966;39;20216;-66
2023/08/16 08:00:43;;;;;;;3.70;2.55;;;;;;;23.07;57.63;101827.66;3612358;39;20067;-66
2023/08/16 08:03:11;;;;;;;4.50;2.10;;;;;;;23.14;56.54;101830.66;3614753;39;20437;-66
2023/08/16 08:05:37;;;;;;;6.90;2.38;;;;;;;23.25;56.68;101835.06;3615723;39;20046;-66
2023/08/16 08:08:04;;;;;;;6.22;2.15;;;;;;;23.35;56.65;101841.38;3615249;39;20089;-66
2023/08/16 08:10:31;;;;;;;4.00;2.20;;;;;;;23.30;55.84;101828.09;3612130;39;20053;-66
2023/08/16 08:12:58;;;;;;;2.95;2.15;;;;;;;23.47;55.99;101842.00;3607695;39;20051;-66
2023/08/16 08:15:24;;;;;;;3.65;2.47;;;;;;;23.53;56.12;101838.66;3613792;39;20051;-65
2023/08/16 08:17:49;;;;;;;5.60;2.40;;;;;;;23.39;56.05;101810.72;3614971;39;20058;-66
2023/08/16 08:20:16;;;;;;;4.13;2.00;;;;;;;23.75;56.03;101842.84;3613311;39;20063;-65
2023/08/16 08:22:42;;;;;;;2.90;2.28;;;;;;;23.85;55.73;101843.66;3616313;39;20058;-66
2023/08/16 08:25:08;;;;;;;5.13;2.35;;;;;;;23.91;55.43;101848.50;3616396;39;20062;-66
2023/08/16 08:27:34;;;;;;;4.97;2.45;;;;;;;23.94;54.56;101841.84;3614942;39;20046;-66
2023/08/16 08:30:02;;;;;;;3.35;2.17;;;;;;;23.98;54.97;101843.28;3614869;39;20136;-65
2023/08/16 08:32:28;;;;;;;4.68;2.28;;;;;;;24.14;55.02;101848.91;3613250;39;20211;-65
2023/08/16 08:34:54;;;;;;;2.55;2.15;;;;;;;24.27;54.80;101848.50;3605668;39;20341;-66
2023/08/16 08:37:19;;;;;;;4.03;2.20;;;;;;;24.48;53.60;101849.00;3613087;39;20074;-66
2023/08/16 08:39:45;;;;;;;3.53;2.30;;;;;;;24.61;52.76;101844.97;3611471;39;20131;-66
2023/08/16 08:42:12;;;;;;;5.63;2.22;;;;;;;24.64;52.73;101856.50;3612157;39;20416;-63
2023/08/16 08:44:41;;;;;;;2.15;1.95;;;;;;;24.50;53.17;101859.84;3610083;39;20346;-64
2023/08/16 08:47:09;;;;;;;4.20;1.90;;;;;;;24.28;52.52;101837.31;3612741;39;20054;-64
2023/08/16 08:49:36;;;;;;;4.30;2.30;;;;;;;24.26;53.50;101855.88;3612232;39;20603;-65
2023/08/16 08:52:05;;;;;;;4.40;2.40;;;;;;;24.14;54.42;101859.03;3612174;39;20054;-65
2023/08/16 08:54:33;;;;;;;5.22;2.95;;;;;;;24.09;53.61;101846.63;3612167;39;20046;-65
2023/08/16 08:56:59;;;;;;;5.25;2.60;;;;;;;24.06;53.63;101863.41;3613300;39;20311;-65
2023/08/16 08:59:33;;;;;;;3.70;2.70;;;;;;;23.94;53.48;101867.41;3606736;39;20521;-64
2023/08/16 09:02:00;;;;;;;5.82;2.65;;;;;;;23.80;53.84;101859.75;3615607;39;20090;-64
2023/08/16 09:04:30;;;;;;;4.03;2.63;;;;;;;23.84;54.31;101864.75;3616304;39;20057;-64
2023/08/16 09:06:59;;;;;;;3.63;2.17;;;;;;;23.83;54.50;101854.78;3611513;39;20070;-64
2023/08/16 09:09:26;;;;;;;4.68;2.42;;;;;;;24.00;55.10;101857.69;3614096;39;20057;-64
2023/08/16 09:11:51;;;;;;;2.47;2.28;;;;;;;23.92;55.07;101821.94;3613796;39;20051;-66
2023/08/16 09:14:18;;;;;;;4.75;2.47;;;;;;;24.22;55.39;101868.19;3617507;39;20431;-65
2023/08/16 09:16:44;;;;;;;5.18;2.30;;;;;;;24.29;53.75;101869.31;3613112;39;20393;-66
2023/08/16 09:19:16;;;;;;;4.32;2.42;;;;;;;24.25;53.84;101858.75;3614106;39;20039;-65
2023/08/16 09:21:43;;;;;;;6.18;2.28;;;;;;;24.23;56.72;101842.44;3613316;39;20303;-66
2023/08/16 09:24:09;;;;;;;4.88;2.40;;;;;;;24.46;53.93;101864.81;3614024;39;20396;-66
2023/08/16 09:26:37;;;;;;;3.53;2.42;;;;;;;24.30;53.09;101839.94;3612487;39;20070;-66
2023/08/16 09:29:03;;;;;;;7.85;2.40;;;;;;;24.48;54.34;101857.25;3612923;39;20343;-66
2023/08/16 09:31:37;;;;;;;4.85;2.55;;;;;;;24.36;53.14;101842.03;3611950;39;20055;-66
2023/08/16 09:34:04;;;;;;;4.28;2.47;;;;;;;24.57;54.68;101860.94;3614164;39;20065;-65
2023/08/16 09:36:35;;;;;;;4.18;2.45;;;;;;;24.40;55.24;101831.59;3613098;39;20056;-65
2023/08/16 09:39:10;;;;;;;5.13;2.25;;;;;;;24.66;53.71;101853.59;3614767;39;20366;-65
2023/08/16 09:41:38;;;;;;;5.60;2.65;;;;;;;24.71;53.25;101860.34;3612653;39;20065;-66
2023/08/16 09:44:06;;;;;;;5.30;2.80;;;;;;;24.57;54.27;101825.19;3612422;39;20076;-65
2023/08/16 09:46:38;;;;;;;3.92;2.83;;;;;;;24.73;55.18;101839.03;3604597;39;20062;-65
2023/08/16 09:49:09;;;;;;;8.43;2.90;;;;;;;24.84;54.63;101857.16;3606097;39;20047;-65
2023/08/16 09:51:40;;;;;;;6.00;3.47;;;;;;;24.85;54.01;101852.50;3610720;39;20135;-65
2023/08/16 09:54:14;;;;;;;5.75;3.10;;;;;;;24.79;54.75;101840.28;3611643;39;20054;-64
2023/08/16 09:56:45;;;;;;;4.55;2.90;;;;;;;24.72;54.54;101825.47;3611624;39;20054;-65
2023/08/16 09:59:12;;;;;;;3.80;3.10;;;;;;;24.89;54.37;101853.91;3611358;39;20093;-66
2023/08/16 10:01:38;;;;;;;3.65;3.00;;;;;;;24.70;54.51;101822.84;3614179;39;20119;-66
2023/08/16 10:04:05;;;;;;;7.47;2.65;;;;;;;24.92;56.26;101848.94;3613741;39;20411;-66
2023/08/16 10:06:33;;;;;;;3.35;3.05;;;;;;;25.01;54.35;101853.44;3611094;39;20155;-66
2023/08/16 10:09:02;;;;;;;5.70;3.10;;;;;;;24.94;54.53;101843.28;3615042;39;20046;-65
2023/08/16 10:11:28;;;;;;;6.38;2.72;;;;;;;24.88;54.48;101839.28;3616377;39;20123;-65
2023/08/16 10:13:55;;;;;;;6.25;3.45;;;;;;;24.87;53.51;101839.47;3599306;39;20385;-65
2023/08/16 10:16:23;;;;;;;3.90;2.90;;;;;;;24.70;53.87;101838.50;3618055;39;20060;-64
2023/08/16 10:18:53;;;;;;;7.47;2.92;;;;;;;24.72;53.56;101856.56;3615214;39;20106;-65
2023/08/16 10:21:22;;;;;;;6.30;3.45;;;;;;;24.71;54.41;101849.34;3619086;39;20051;-64
2023/08/16 10:23:48;;;;;;;3.92;3.10;;;;;;;24.62;55.08;101847.56;3614696;39;20094;-65
2023/08/16 10:26:21;;;;;;;4.30;3.35;;;;;;;24.51;54.99;101834.94;3607531;39;20055;-65
2023/08/16 10:28:54;;;;;;;5.82;3.17;;;;;;;24.62;54.91;101847.56;3617870;39;20073;-66
2023/08/16 10:31:31;;;;;;;5.50;3.67;;;;;;;24.69;55.79;101845.88;3618112;39;20062;-65
2023/08/16 10:34:01;;;;;;;3.67;3.30;;;;;;;24.77;55.22;101843.19;3616560;39;20157;-66
2023/08/16 10:36:29;;;;;;;6.72;3.80;;;;;;;24.76;54.85;101821.34;3614522;39;20054;-65
2023/08/16 10:38:57;;;;;;;7.38;3.83;;;;;;;24.94;55.11;101824.03;3616504;39;20354;-66
2023/08/16 10:41:23;;;;;;;3.92;3.15;;;;;;;25.10;55.20;101835.09;3616547;39;20053;-65
2023/08/16 10:43:52;;;;;;;6.50;3.85;;;;;;;25.22;54.33;101846.72;3614432;39;20047;-65
2023/08/16 10:46:34;;;;;;;7.10;2.95;;;;;;;25.26;54.42;101842.59;3616514;39;20050;-65
2023/08/16 10:49:08;;;;;;;5.05;3.40;;;;;;;25.34;54.53;101845.38;3614302;39;20082;-66
2023/08/16 10:51:53;;;;;;;4.78;3.30;;;;;;;24.88;54.31;101753.16;3615491;39;20046;-65
2023/08/16 10:54:33;;;;;;;5.45;3.47;;;;;;;25.44;53.78;101836.97;3614518;39;20057;-65
2023/08/16 10:57:05;;;;;;;6.30;3.30;;;;;;;25.43;53.20;101832.47;3614889;39;20058;-66
2023/08/16 10:59:41;;;;;;;4.32;2.92;;;;;;;25.42;53.82;101845.38;3613430;39;20047;-65
2023/08/16 11:02:17;;;;;;;5.93;3.03;;;;;;;25.40;53.89;101843.81;3614984;39;20423;-65
2023/08/16 11:04:45;;;;;;;4.70;3.00;;;;;;;25.46;52.67;101835.75;3613005;39;20055;-65
2023/08/16 11:07:12;;;;;;;5.57;3.00;;;;;;;25.47;52.68;101839.41;3614433;39;20069;-65
2023/08/16 11:09:39;;;;;;;6.40;3.10;;;;;;;25.51;53.30;101839.91;3616952;39;20059;-65
2023/08/16 11:12:06;;;;;;;5.85;3.40;;;;;;;25.68;52.97;101841.66;3603097;39;20127;-65
2023/08/16 11:14:34;;;;;;;5.68;3.10;;;;;;;25.75;53.40;101848.22;3614170;39;20050;-65
2023/08/16 11:17:02;;;;;;;5.07;3.05;;;;;;;25.82;53.39;101845.69;3605470;39;20043;-65
2023/08/16 11:19:28;;;;;;;6.60;3.22;;;;;;;25.99;53.80;101841.91;3607244;39;20079;-66
2023/08/16 11:22:01;;;;;;;5.18;3.47;;;;;;;25.81;52.36;101813.66;3614544;39;20441;-66
2023/08/16 11:24:27;;;;;;;5.13;3.47;;;;;;;26.09;53.24;101838.97;3613727;39;20062;-66